sensor_id;sensor_type;location;lat;lon;timestamp;P1;durP1;ratioP1;P2;durP2;ratioP2
23678;SDS011;12016;51.668;6.874;2022-12-10T00:00:47;49.75;;;32.28;;
23678;SDS011;12016;51.668;6.874;2022-12-10T00:06:48;47.95;;;32.53;;
23678;SDS011;12016;51.668;6.874;2022-12-10T00:12:50;49.17;;;34.17;;
23678;SDS011;12016;51.668;6.874;2022-12-10T00:18:52;53.55;;;34.83;;
23678;SDS011;12016;51.668;6.874;2022-12-10T00:24:54;47.92;;;34.08;;
23678;SDS011;12016;51.668;6.874;2022-12-10T00:31:00;50.60;;;33.90;;
23678;SDS011;12016;51.668;6.874;2022-12-10T00:37:03;44.75;;;30.20;;
23678;SDS011;12016;51.668;6.874;2022-12-10T00:43:05;47.50;;;31.95;;
23678;SDS011;12016;51.668;6.874;2022-12-10T00:49:08;47.88;;;32.10;;
23678;SDS011;12016;51.668;6.874;2022-12-10T00:55:10;46.47;;;32.15;;
23678;SDS011;12016;51.668;6.874;2022-12-10T01:01:17;44.78;;;30.75;;
23678;SDS011;12016;51.668;6.874;2022-12-10T01:07:25;42.25;;;30.23;;
23678;SDS011;12016;51.668;6.874;2022-12-10T01:13:27;47.70;;;32.75;;
23678;SDS011;12016;51.668;6.874;2022-12-10T01:19:29;47.00;;;31.10;;
23678;SDS011;12016;51.668;6.874;2022-12-10T01:25:35;44.75;;;32.28;;
23678;SDS011;12016;51.668;6.874;2022-12-10T01:31:37;46.38;;;32.22;;
23678;SDS011;12016;51.668;6.874;2022-12-10T01:37:39;47.03;;;32.28;;
23678;SDS011;12016;51.668;6.874;2022-12-10T01:43:51;43.25;;;30.70;;
23678;SDS011;12016;51.668;6.874;2022-12-10T01:49:58;49.85;;;33.40;;
23678;SDS011;12016;51.668;6.874;2022-12-10T01:56:02;49.47;;;33.45;;
23678;SDS011;12016;51.668;6.874;2022-12-10T02:14:38;55.85;;;36.63;;
23678;SDS011;12016;51.668;6.874;2022-12-10T02:21:08;63.58;;;37.33;;
23678;SDS011;12016;51.668;6.874;2022-12-10T02:27:18;60.50;;;37.90;;
23678;SDS011;12016;51.668;6.874;2022-12-10T02:33:26;55.17;;;37.65;;
23678;SDS011;12016;51.668;6.874;2022-12-10T02:39:32;61.28;;;37.35;;
23678;SDS011;12016;51.668;6.874;2022-12-10T02:45:39;52.95;;;34.88;;
23678;SDS011;12016;51.668;6.874;2022-12-10T02:51:44;131.60;;;38.65;;
23678;SDS011;12016;51.668;6.874;2022-12-10T03:10:26;116.72;;;33.83;;
23678;SDS011;12016;51.668;6.874;2022-12-10T03:16:39;209.63;;;35.63;;
23678;SDS011;12016;51.668;6.874;2022-12-10T03:22:47;372.50;;;38.95;;
23678;SDS011;12016;51.668;6.874;2022-12-10T03:28:51;321.45;;;41.60;;
23678;SDS011;12016;51.668;6.874;2022-12-10T03:34:57;401.27;;;40.70;;
23678;SDS011;12016;51.668;6.874;2022-12-10T03:41:01;334.17;;;37.25;;
23678;SDS011;12016;51.668;6.874;2022-12-10T03:47:04;264.52;;;33.97;;
23678;SDS011;12016;51.668;6.874;2022-12-10T03:53:07;250.60;;;31.98;;
23678;SDS011;12016;51.668;6.874;2022-12-10T03:59:10;216.18;;;32.00;;
23678;SDS011;12016;51.668;6.874;2022-12-10T04:05:12;104.53;;;29.25;;
23678;SDS011;12016;51.668;6.874;2022-12-10T04:11:15;109.45;;;29.70;;
23678;SDS011;12016;51.668;6.874;2022-12-10T04:17:16;56.78;;;27.23;;
23678;SDS011;12016;51.668;6.874;2022-12-10T04:23:18;73.10;;;29.42;;
23678;SDS011;12016;51.668;6.874;2022-12-10T04:29:39;103.33;;;30.20;;
23678;SDS011;12016;51.668;6.874;2022-12-10T04:35:41;88.97;;;29.83;;
23678;SDS011;12016;51.668;6.874;2022-12-10T04:41:43;85.78;;;26.73;;
23678;SDS011;12016;51.668;6.874;2022-12-10T04:47:46;81.43;;;26.13;;
23678;SDS011;12016;51.668;6.874;2022-12-10T04:53:48;87.43;;;27.52;;
23678;SDS011;12016;51.668;6.874;2022-12-10T04:59:50;44.40;;;26.52;;
23678;SDS011;12016;51.668;6.874;2022-12-10T05:05:51;80.32;;;25.67;;
23678;SDS011;12016;51.668;6.874;2022-12-10T05:11:54;146.45;;;28.45;;
23678;SDS011;12016;51.668;6.874;2022-12-10T05:17:55;43.45;;;26.08;;
23678;SDS011;12016;51.668;6.874;2022-12-10T05:23:57;76.75;;;25.85;;
23678;SDS011;12016;51.668;6.874;2022-12-10T05:30:00;55.33;;;25.67;;
23678;SDS011;12016;51.668;6.874;2022-12-10T05:36:02;38.53;;;25.58;;
23678;SDS011;12016;51.668;6.874;2022-12-10T05:42:05;49.05;;;26.65;;
23678;SDS011;12016;51.668;6.874;2022-12-10T05:48:08;36.63;;;27.15;;
23678;SDS011;12016;51.668;6.874;2022-12-10T05:54:11;31.05;;;24.88;;
23678;SDS011;12016;51.668;6.874;2022-12-10T06:00:13;40.95;;;29.67;;
23678;SDS011;12016;51.668;6.874;2022-12-10T06:06:20;39.08;;;27.83;;
23678;SDS011;12016;51.668;6.874;2022-12-10T06:12:26;56.00;;;32.13;;
23678;SDS011;12016;51.668;6.874;2022-12-10T06:18:28;46.13;;;31.02;;
23678;SDS011;12016;51.668;6.874;2022-12-10T06:24:30;51.38;;;33.03;;
23678;SDS011;12016;51.668;6.874;2022-12-10T06:30:31;48.03;;;30.48;;
23678;SDS011;12016;51.668;6.874;2022-12-10T06:36:34;42.30;;;29.42;;
23678;SDS011;12016;51.668;6.874;2022-12-10T06:42:36;42.45;;;27.85;;
23678;SDS011;12016;51.668;6.874;2022-12-10T06:48:38;42.40;;;28.95;;
23678;SDS011;12016;51.668;6.874;2022-12-10T06:54:41;39.78;;;28.25;;
23678;SDS011;12016;51.668;6.874;2022-12-10T07:00:42;42.03;;;28.92;;
23678;SDS011;12016;51.668;6.874;2022-12-10T07:06:44;41.72;;;28.30;;
23678;SDS011;12016;51.668;6.874;2022-12-10T07:12:46;42.60;;;27.65;;
23678;SDS011;12016;51.668;6.874;2022-12-10T07:18:48;41.40;;;28.30;;
23678;SDS011;12016;51.668;6.874;2022-12-10T07:24:52;42.17;;;29.48;;
23678;SDS011;12016;51.668;6.874;2022-12-10T07:31:00;46.13;;;28.75;;
23678;SDS011;12016;51.668;6.874;2022-12-10T07:37:05;42.92;;;28.65;;
23678;SDS011;12016;51.668;6.874;2022-12-10T07:43:08;43.55;;;29.45;;
23678;SDS011;12016;51.668;6.874;2022-12-10T07:49:10;43.95;;;28.80;;
23678;SDS011;12016;51.668;6.874;2022-12-10T07:55:12;47.95;;;32.55;;
23678;SDS011;12016;51.668;6.874;2022-12-10T08:01:17;48.33;;;32.30;;
23678;SDS011;12016;51.668;6.874;2022-12-10T08:07:23;47.00;;;31.45;;
23678;SDS011;12016;51.668;6.874;2022-12-10T08:13:25;49.88;;;33.42;;
23678;SDS011;12016;51.668;6.874;2022-12-10T08:19:26;60.60;;;36.90;;
23678;SDS011;12016;51.668;6.874;2022-12-10T08:25:32;59.38;;;37.33;;
23678;SDS011;12016;51.668;6.874;2022-12-10T08:31:36;54.92;;;35.60;;
23678;SDS011;12016;51.668;6.874;2022-12-10T08:37:40;57.50;;;36.97;;
23678;SDS011;12016;51.668;6.874;2022-12-10T08:43:42;59.78;;;37.72;;
23678;SDS011;12016;51.668;6.874;2022-12-10T08:49:45;83.60;;;46.03;;
23678;SDS011;12016;51.668;6.874;2022-12-10T08:55:51;100.13;;;52.30;;
23678;SDS011;12016;51.668;6.874;2022-12-10T09:01:54;100.97;;;53.35;;
23678;SDS011;12016;51.668;6.874;2022-12-10T09:07:57;112.63;;;59.95;;
23678;SDS011;12016;51.668;6.874;2022-12-10T09:14:00;111.65;;;57.65;;
23678;SDS011;12016;51.668;6.874;2022-12-10T09:20:03;128.60;;;61.88;;
23678;SDS011;12016;51.668;6.874;2022-12-10T09:26:10;135.23;;;67.13;;
23678;SDS011;12016;51.668;6.874;2022-12-10T09:32:14;121.18;;;61.90;;
23678;SDS011;12016;51.668;6.874;2022-12-10T09:38:16;120.38;;;59.88;;
23678;SDS011;12016;51.668;6.874;2022-12-10T09:50:48;125.30;;;63.28;;
23678;SDS011;12016;51.668;6.874;2022-12-10T09:57:00;124.43;;;64.63;;
23678;SDS011;12016;51.668;6.874;2022-12-10T10:03:05;121.43;;;63.85;;
23678;SDS011;12016;51.668;6.874;2022-12-10T10:09:13;121.93;;;63.58;;
23678;SDS011;12016;51.668;6.874;2022-12-10T10:15:18;125.13;;;64.60;;
23678;SDS011;12016;51.668;6.874;2022-12-10T10:21:35;126.97;;;63.97;;
23678;SDS011;12016;51.668;6.874;2022-12-10T10:27:39;105.53;;;56.47;;
23678;SDS011;12016;51.668;6.874;2022-12-10T10:33:51;113.05;;;61.08;;
23678;SDS011;12016;51.668;6.874;2022-12-10T10:39:58;124.65;;;64.22;;
23678;SDS011;12016;51.668;6.874;2022-12-10T10:52:15;113.85;;;60.70;;
23678;SDS011;12016;51.668;6.874;2022-12-10T10:58:18;115.82;;;62.47;;
23678;SDS011;12016;51.668;6.874;2022-12-10T11:04:29;107.88;;;55.25;;
23678;SDS011;12016;51.668;6.874;2022-12-10T11:10:40;96.50;;;53.45;;
23678;SDS011;12016;51.668;6.874;2022-12-10T11:16:49;93.03;;;51.67;;
23678;SDS011;12016;51.668;6.874;2022-12-10T11:22:53;86.10;;;51.15;;
23678;SDS011;12016;51.668;6.874;2022-12-10T11:29:00;89.35;;;50.42;;
23678;SDS011;12016;51.668;6.874;2022-12-10T11:35:13;87.95;;;51.03;;
23678;SDS011;12016;51.668;6.874;2022-12-10T11:41:38;92.45;;;52.92;;
23678;SDS011;12016;51.668;6.874;2022-12-10T11:54:10;78.03;;;46.72;;
23678;SDS011;12016;51.668;6.874;2022-12-10T12:00:30;70.97;;;43.97;;
23678;SDS011;12016;51.668;6.874;2022-12-10T12:13:04;74.82;;;45.72;;
23678;SDS011;12016;51.668;6.874;2022-12-10T12:19:24;65.60;;;41.55;;
23678;SDS011;12016;51.668;6.874;2022-12-10T12:25:38;65.13;;;42.72;;
23678;SDS011;12016;51.668;6.874;2022-12-10T12:32:44;67.80;;;42.88;;
23678;SDS011;12016;51.668;6.874;2022-12-10T12:44:59;67.25;;;42.30;;
23678;SDS011;12016;51.668;6.874;2022-12-10T12:51:08;60.38;;;39.72;;
23678;SDS011;12016;51.668;6.874;2022-12-10T12:57:14;74.28;;;46.78;;
23678;SDS011;12016;51.668;6.874;2022-12-10T13:22:54;70.80;;;45.33;;
23678;SDS011;12016;51.668;6.874;2022-12-10T13:29:13;69.38;;;43.90;;
23678;SDS011;12016;51.668;6.874;2022-12-10T13:35:27;60.70;;;40.60;;
23678;SDS011;12016;51.668;6.874;2022-12-10T13:41:34;61.25;;;39.88;;
23678;SDS011;12016;51.668;6.874;2022-12-10T14:07:00;65.72;;;43.67;;
23678;SDS011;12016;51.668;6.874;2022-12-10T14:13:03;61.65;;;42.30;;
23678;SDS011;12016;51.668;6.874;2022-12-10T14:19:07;67.60;;;43.25;;
23678;SDS011;12016;51.668;6.874;2022-12-10T14:25:14;69.38;;;44.00;;
23678;SDS011;12016;51.668;6.874;2022-12-10T14:31:25;66.00;;;42.13;;
23678;SDS011;12016;51.668;6.874;2022-12-10T14:37:31;64.93;;;40.78;;
23678;SDS011;12016;51.668;6.874;2022-12-10T14:43:37;72.07;;;43.30;;
23678;SDS011;12016;51.668;6.874;2022-12-10T14:49:42;78.95;;;45.28;;
23678;SDS011;12016;51.668;6.874;2022-12-10T14:55:52;75.40;;;45.27;;
23678;SDS011;12016;51.668;6.874;2022-12-10T15:01:57;77.18;;;45.05;;
23678;SDS011;12016;51.668;6.874;2022-12-10T15:08:05;70.32;;;42.92;;
23678;SDS011;12016;51.668;6.874;2022-12-10T15:14:10;71.88;;;43.10;;
23678;SDS011;12016;51.668;6.874;2022-12-10T15:21:05;70.43;;;42.83;;
23678;SDS011;12016;51.668;6.874;2022-12-10T15:26:51;68.72;;;41.17;;
23678;SDS011;12016;51.668;6.874;2022-12-10T15:32:53;73.78;;;44.42;;
23678;SDS011;12016;51.668;6.874;2022-12-10T15:38:55;70.82;;;43.00;;
23678;SDS011;12016;51.668;6.874;2022-12-10T15:51:21;73.28;;;43.40;;
23678;SDS011;12016;51.668;6.874;2022-12-10T15:57:27;70.20;;;41.72;;
23678;SDS011;12016;51.668;6.874;2022-12-10T16:03:33;71.30;;;41.40;;
23678;SDS011;12016;51.668;6.874;2022-12-10T16:09:38;71.07;;;40.83;;
23678;SDS011;12016;51.668;6.874;2022-12-10T16:15:41;64.18;;;39.58;;
23678;SDS011;12016;51.668;6.874;2022-12-10T16:21:47;66.85;;;39.05;;
23678;SDS011;12016;51.668;6.874;2022-12-10T16:27:50;68.30;;;39.75;;
23678;SDS011;12016;51.668;6.874;2022-12-10T16:33:53;72.80;;;42.45;;
23678;SDS011;12016;51.668;6.874;2022-12-10T16:39:56;66.00;;;39.85;;
23678;SDS011;12016;51.668;6.874;2022-12-10T16:46:00;70.57;;;39.85;;
23678;SDS011;12016;51.668;6.874;2022-12-10T16:52:02;67.47;;;39.83;;
23678;SDS011;12016;51.668;6.874;2022-12-10T16:58:05;68.90;;;40.25;;
23678;SDS011;12016;51.668;6.874;2022-12-10T17:04:11;67.90;;;40.33;;
23678;SDS011;12016;51.668;6.874;2022-12-10T17:10:13;69.82;;;40.00;;
23678;SDS011;12016;51.668;6.874;2022-12-10T17:16:21;68.97;;;39.47;;
23678;SDS011;12016;51.668;6.874;2022-12-10T17:22:24;67.57;;;40.65;;
23678;SDS011;12016;51.668;6.874;2022-12-10T17:28:26;61.50;;;37.17;;
23678;SDS011;12016;51.668;6.874;2022-12-10T17:34:28;62.60;;;36.78;;
23678;SDS011;12016;51.668;6.874;2022-12-10T17:40:30;69.93;;;40.53;;
23678;SDS011;12016;51.668;6.874;2022-12-10T17:46:33;67.03;;;39.45;;
23678;SDS011;12016;51.668;6.874;2022-12-10T17:52:36;65.40;;;38.40;;
23678;SDS011;12016;51.668;6.874;2022-12-10T17:58:38;64.72;;;38.53;;
23678;SDS011;12016;51.668;6.874;2022-12-10T18:04:41;65.88;;;36.28;;
23678;SDS011;12016;51.668;6.874;2022-12-10T18:10:43;67.15;;;37.03;;
23678;SDS011;12016;51.668;6.874;2022-12-10T18:16:45;61.60;;;36.40;;
23678;SDS011;12016;51.668;6.874;2022-12-10T18:22:48;68.47;;;38.88;;
23678;SDS011;12016;51.668;6.874;2022-12-10T18:28:58;63.92;;;36.63;;
23678;SDS011;12016;51.668;6.874;2022-12-10T18:35:02;65.68;;;37.20;;
23678;SDS011;12016;51.668;6.874;2022-12-10T18:41:04;64.10;;;37.67;;
23678;SDS011;12016;51.668;6.874;2022-12-10T18:47:10;65.90;;;37.05;;
23678;SDS011;12016;51.668;6.874;2022-12-10T18:53:13;64.95;;;38.17;;
23678;SDS011;12016;51.668;6.874;2022-12-10T18:59:16;59.92;;;35.78;;
23678;SDS011;12016;51.668;6.874;2022-12-10T19:05:19;63.40;;;38.83;;
23678;SDS011;12016;51.668;6.874;2022-12-10T19:11:20;69.35;;;40.17;;
23678;SDS011;12016;51.668;6.874;2022-12-10T19:17:23;64.95;;;38.13;;
23678;SDS011;12016;51.668;6.874;2022-12-10T19:23:25;69.93;;;39.08;;
23678;SDS011;12016;51.668;6.874;2022-12-10T19:29:27;66.80;;;39.45;;
23678;SDS011;12016;51.668;6.874;2022-12-10T19:35:29;68.28;;;39.28;;
23678;SDS011;12016;51.668;6.874;2022-12-10T19:41:31;64.30;;;37.97;;
23678;SDS011;12016;51.668;6.874;2022-12-10T19:47:34;67.45;;;38.67;;
23678;SDS011;12016;51.668;6.874;2022-12-10T19:53:37;68.40;;;38.20;;
23678;SDS011;12016;51.668;6.874;2022-12-10T19:59:40;70.65;;;39.95;;
23678;SDS011;12016;51.668;6.874;2022-12-10T20:05:42;87.50;;;44.08;;
23678;SDS011;12016;51.668;6.874;2022-12-10T20:11:44;81.57;;;43.92;;
23678;SDS011;12016;51.668;6.874;2022-12-10T20:17:46;87.10;;;44.67;;
23678;SDS011;12016;51.668;6.874;2022-12-10T20:23:50;94.25;;;44.20;;
23678;SDS011;12016;51.668;6.874;2022-12-10T20:29:52;93.13;;;42.33;;
23678;SDS011;12016;51.668;6.874;2022-12-10T20:35:54;80.22;;;39.85;;
23678;SDS011;12016;51.668;6.874;2022-12-10T20:41:58;82.53;;;39.45;;
23678;SDS011;12016;51.668;6.874;2022-12-10T20:48:00;85.43;;;39.00;;
23678;SDS011;12016;51.668;6.874;2022-12-10T20:54:02;79.63;;;37.45;;
23678;SDS011;12016;51.668;6.874;2022-12-10T21:00:05;83.15;;;39.72;;
23678;SDS011;12016;51.668;6.874;2022-12-10T21:06:17;80.20;;;37.80;;
23678;SDS011;12016;51.668;6.874;2022-12-10T21:12:22;78.13;;;33.92;;
23678;SDS011;12016;51.668;6.874;2022-12-10T21:18:25;78.93;;;35.83;;
23678;SDS011;12016;51.668;6.874;2022-12-10T21:24:27;72.05;;;33.28;;
23678;SDS011;12016;51.668;6.874;2022-12-10T21:30:29;77.10;;;36.08;;
23678;SDS011;12016;51.668;6.874;2022-12-10T21:36:32;72.90;;;31.45;;
23678;SDS011;12016;51.668;6.874;2022-12-10T21:42:37;90.35;;;38.03;;
23678;SDS011;12016;51.668;6.874;2022-12-10T21:48:58;88.35;;;37.47;;
23678;SDS011;12016;51.668;6.874;2022-12-10T21:55:00;84.55;;;35.90;;
23678;SDS011;12016;51.668;6.874;2022-12-10T22:01:02;96.45;;;39.47;;
23678;SDS011;12016;51.668;6.874;2022-12-10T22:07:06;94.32;;;37.63;;
23678;SDS011;12016;51.668;6.874;2022-12-10T22:13:07;83.22;;;36.03;;
23678;SDS011;12016;51.668;6.874;2022-12-10T22:19:15;77.00;;;34.08;;
23678;SDS011;12016;51.668;6.874;2022-12-10T22:25:19;72.40;;;33.15;;
23678;SDS011;12016;51.668;6.874;2022-12-10T22:31:21;67.43;;;32.15;;
23678;SDS011;12016;51.668;6.874;2022-12-10T22:37:23;69.60;;;32.75;;
23678;SDS011;12016;51.668;6.874;2022-12-10T22:43:25;65.75;;;31.60;;
23678;SDS011;12016;51.668;6.874;2022-12-10T22:49:47;83.82;;;35.78;;
23678;SDS011;12016;51.668;6.874;2022-12-10T22:55:56;67.10;;;30.38;;
23678;SDS011;12016;51.668;6.874;2022-12-10T23:01:59;73.95;;;33.28;;
23678;SDS011;12016;51.668;6.874;2022-12-10T23:08:01;67.43;;;31.17;;
23678;SDS011;12016;51.668;6.874;2022-12-10T23:14:07;53.15;;;27.80;;
23678;SDS011;12016;51.668;6.874;2022-12-10T23:20:09;53.10;;;27.05;;
23678;SDS011;12016;51.668;6.874;2022-12-10T23:26:11;55.08;;;27.35;;
23678;SDS011;12016;51.668;6.874;2022-12-10T23:32:14;61.70;;;28.83;;
23678;SDS011;12016;51.668;6.874;2022-12-10T23:38:15;53.70;;;26.90;;
23678;SDS011;12016;51.668;6.874;2022-12-10T23:44:17;54.72;;;27.00;;
23678;SDS011;12016;51.668;6.874;2022-12-10T23:50:20;59.90;;;27.70;;
23678;SDS011;12016;51.668;6.874;2022-12-10T23:56:21;62.53;;;28.45;;
